Arjeplog, Sweden

7:35 AM CEST on September 17, 2014 (GMT +0200)
Arvidsjaur | Change Station
CLOSE
Current Station
Airport
Location: ARVIDSJAUR,
Elevation: 1243 ft
Nearby Weather Stations

Elev 1243 ft 65.59 °N, 19.28 °E | Updated 15 minutes ago

Fog
Fog
34 °F
Feels Like 34 °F
N
1
Wind Variable Wind from Variable

Today
High -- | Low -- °F
--% Chance of Precip.
Yesterday
High -- | Low -- °F
Precip. -- in
6:14 AM 7:10 PM
Last Quarter, 39% visible
Pressure 30.24 in
Visibility 0.1 miles
Clouds
Dew Point 32 °F
Humidity 93%
Rainfall 0.00 in
Snow Depth Not available.
UV Not available.
Pollen Not available.
Air Quality Not available.
Flu Activity Not available.
METAR ESNX 170520Z VRB01KT 0100 R12/0250 R30/0800 FG VV001 01/00 Q1024

More Conditions Fewer Conditions

Pressure 30.24 in
Visibility 0.1 miles
Clouds
Dew Point 32 °F
Humidity 93%
Rainfall 0.00 in
Snow Depth Not available.
UV Not available.
Pollen Not available.
Air Quality Not available.
Flu Activity Not available.
METAR ESNX 170520Z VRB01KT 0100 R12/0250 R30/0800 FG VV001 01/00 Q1024

More Conditions Fewer Conditions

10-Day Weather Forecast

Almanac

Astronomy

Sep. 17, 2014 Rise Set
Actual Time 6:14 AM CEST 7:10 PM CEST
Civil Twilight 5:21 AM CEST 8:02 PM CEST
Nautical Twilight 4:14 AM CEST 9:08 PM CEST
Astronomical Twilight 2:48 AM CEST 10:32 PM CEST
Moon 11:06 PM CEST 4:55 PM CEST
Length of Visible Light 14h 40m
Length of Day
12h 55m
Tomorrow will be 7m 2s shorter.
Last Quarter, 39% of the Moon is Illuminated
Today
Last Quarter
Sep 24
New
Oct 1
First Quarter
Oct 8
Full
Oct 15
Last Quarter

Yesterday's Extremes

Country Highs Country Lows

Community

WunderPhotos

Upload Photos

1,753,968 photos uploaded!

Nearby

Snow Depth

Not available.

Earthquake Activity

City Distance Mag. Time & Date
No recent earthquake activity has been reported nearby.
Minimum magnitude displayed is 2.5.

Coastal Water Temperatures

Place Temperature
No Stations Reporting

Nearby Weather Stations